sensor_id;sensor_type;location;lat;lon;timestamp;P1;durP1;ratioP1;P2;durP2;ratioP2
7289;SDS011;63176;52.678;13.250;2023-01-29T00:00:37;3.23;;;2.87;;
7289;SDS011;63176;52.678;13.250;2023-01-29T00:03:03;5.40;;;3.07;;
7289;SDS011;63176;52.678;13.250;2023-01-29T00:05:29;4.85;;;3.20;;
7289;SDS011;63176;52.678;13.250;2023-01-29T00:07:55;4.43;;;2.57;;
7289;SDS011;63176;52.678;13.250;2023-01-29T00:10:21;5.38;;;3.15;;
7289;SDS011;63176;52.678;13.250;2023-01-29T00:12:50;7.25;;;2.92;;
7289;SDS011;63176;52.678;13.250;2023-01-29T00:15:17;3.78;;;2.85;;
7289;SDS011;63176;52.678;13.250;2023-01-29T00:17:42;4.33;;;3.23;;
7289;SDS011;63176;52.678;13.250;2023-01-29T00:20:08;3.50;;;2.65;;
7289;SDS011;63176;52.678;13.250;2023-01-29T00:22:35;6.28;;;3.45;;
7289;SDS011;63176;52.678;13.250;2023-01-29T00:25:00;3.50;;;2.20;;
7289;SDS011;63176;52.678;13.250;2023-01-29T00:27:26;4.90;;;2.72;;
7289;SDS011;63176;52.678;13.250;2023-01-29T00:29:52;6.87;;;4.40;;
7289;SDS011;63176;52.678;13.250;2023-01-29T00:32:36;5.40;;;3.70;;
7289;SDS011;63176;52.678;13.250;2023-01-29T00:35:03;5.75;;;3.40;;
7289;SDS011;63176;52.678;13.250;2023-01-29T00:37:30;4.68;;;3.05;;
7289;SDS011;63176;52.678;13.250;2023-01-29T00:39:56;7.10;;;3.63;;
7289;SDS011;63176;52.678;13.250;2023-01-29T00:42:22;9.50;;;3.10;;
7289;SDS011;63176;52.678;13.250;2023-01-29T00:45:07;5.40;;;3.47;;
7289;SDS011;63176;52.678;13.250;2023-01-29T00:47:33;6.13;;;3.78;;
7289;SDS011;63176;52.678;13.250;2023-01-29T00:50:04;4.20;;;2.97;;
7289;SDS011;63176;52.678;13.250;2023-01-29T00:52:33;4.28;;;3.60;;
7289;SDS011;63176;52.678;13.250;2023-01-29T00:55:00;4.80;;;3.65;;
7289;SDS011;63176;52.678;13.250;2023-01-29T00:57:28;7.40;;;4.22;;
7289;SDS011;63176;52.678;13.250;2023-01-29T00:59:55;5.78;;;3.58;;
7289;SDS011;63176;52.678;13.250;2023-01-29T01:02:21;6.50;;;3.93;;
7289;SDS011;63176;52.678;13.250;2023-01-29T01:05:07;7.18;;;3.80;;
7289;SDS011;63176;52.678;13.250;2023-01-29T01:07:45;6.15;;;3.47;;
7289;SDS011;63176;52.678;13.250;2023-01-29T01:10:14;10.23;;;4.47;;
7289;SDS011;63176;52.678;13.250;2023-01-29T01:12:59;6.90;;;4.20;;
7289;SDS011;63176;52.678;13.250;2023-01-29T01:15:28;8.02;;;3.10;;
7289;SDS011;63176;52.678;13.250;2023-01-29T01:17:56;8.45;;;4.32;;
7289;SDS011;63176;52.678;13.250;2023-01-29T01:20:24;5.72;;;4.43;;
7289;SDS011;63176;52.678;13.250;2023-01-29T01:22:53;5.95;;;3.95;;
7289;SDS011;63176;52.678;13.250;2023-01-29T01:25:19;4.97;;;3.87;;
7289;SDS011;63176;52.678;13.250;2023-01-29T01:27:45;7.45;;;3.92;;
7289;SDS011;63176;52.678;13.250;2023-01-29T01:30:12;7.43;;;4.30;;
7289;SDS011;63176;52.678;13.250;2023-01-29T01:32:39;8.30;;;4.60;;
7289;SDS011;63176;52.678;13.250;2023-01-29T01:35:06;7.40;;;4.20;;
7289;SDS011;63176;52.678;13.250;2023-01-29T01:37:33;8.35;;;4.60;;
7289;SDS011;63176;52.678;13.250;2023-01-29T01:40:01;7.32;;;4.55;;
7289;SDS011;63176;52.678;13.250;2023-01-29T01:42:30;7.47;;;4.85;;
7289;SDS011;63176;52.678;13.250;2023-01-29T01:45:00;8.32;;;4.70;;
7289;SDS011;63176;52.678;13.250;2023-01-29T01:47:37;8.23;;;5.47;;
7289;SDS011;63176;52.678;13.250;2023-01-29T01:50:07;7.43;;;4.57;;
7289;SDS011;63176;52.678;13.250;2023-01-29T01:52:34;5.63;;;3.90;;
7289;SDS011;63176;52.678;13.250;2023-01-29T01:55:06;10.35;;;5.20;;
7289;SDS011;63176;52.678;13.250;2023-01-29T01:57:35;6.00;;;4.60;;
7289;SDS011;63176;52.678;13.250;2023-01-29T02:00:05;6.63;;;4.03;;
7289;SDS011;63176;52.678;13.250;2023-01-29T02:02:40;7.60;;;3.85;;
7289;SDS011;63176;52.678;13.250;2023-01-29T02:05:27;8.45;;;5.25;;
7289;SDS011;63176;52.678;13.250;2023-01-29T02:08:13;7.70;;;5.13;;
7289;SDS011;63176;52.678;13.250;2023-01-29T02:10:59;6.95;;;4.88;;
7289;SDS011;63176;52.678;13.250;2023-01-29T02:13:25;12.23;;;6.55;;
7289;SDS011;63176;52.678;13.250;2023-01-29T02:15:51;9.87;;;5.07;;
7289;SDS011;63176;52.678;13.250;2023-01-29T02:18:18;7.70;;;5.00;;
7289;SDS011;63176;52.678;13.250;2023-01-29T02:20:51;8.02;;;4.85;;
7289;SDS011;63176;52.678;13.250;2023-01-29T02:34:47;13.98;;;4.80;;
7289;SDS011;63176;52.678;13.250;2023-01-29T02:37:40;9.98;;;5.40;;
7289;SDS011;63176;52.678;13.250;2023-01-29T02:45:42;9.57;;;6.28;;
7289;SDS011;63176;52.678;13.250;2023-01-29T02:48:19;8.85;;;4.80;;
7289;SDS011;63176;52.678;13.250;2023-01-29T02:51:07;10.30;;;5.63;;
7289;SDS011;63176;52.678;13.250;2023-01-29T02:53:52;8.18;;;4.47;;
7289;SDS011;63176;52.678;13.250;2023-01-29T02:56:28;10.93;;;5.38;;
7289;SDS011;63176;52.678;13.250;2023-01-29T02:59:41;8.77;;;4.72;;
7289;SDS011;63176;52.678;13.250;2023-01-29T03:02:10;6.15;;;4.55;;
7289;SDS011;63176;52.678;13.250;2023-01-29T03:04:41;9.07;;;5.35;;
7289;SDS011;63176;52.678;13.250;2023-01-29T03:07:15;13.25;;;5.07;;
7289;SDS011;63176;52.678;13.250;2023-01-29T03:10:05;7.57;;;4.55;;
7289;SDS011;63176;52.678;13.250;2023-01-29T03:12:43;12.65;;;6.60;;
7289;SDS011;63176;52.678;13.250;2023-01-29T03:15:14;11.52;;;5.45;;
7289;SDS011;63176;52.678;13.250;2023-01-29T03:17:46;12.80;;;6.50;;
7289;SDS011;63176;52.678;13.250;2023-01-29T03:20:23;9.10;;;5.72;;
7289;SDS011;63176;52.678;13.250;2023-01-29T03:22:57;9.18;;;6.15;;
7289;SDS011;63176;52.678;13.250;2023-01-29T03:25:32;9.70;;;4.75;;
7289;SDS011;63176;52.678;13.250;2023-01-29T03:28:18;8.98;;;5.80;;
7289;SDS011;63176;52.678;13.250;2023-01-29T03:31:06;10.60;;;6.35;;
7289;SDS011;63176;52.678;13.250;2023-01-29T03:33:59;12.88;;;6.00;;
7289;SDS011;63176;52.678;13.250;2023-01-29T03:39:27;6.20;;;4.15;;
7289;SDS011;63176;52.678;13.250;2023-01-29T03:41:55;9.70;;;5.80;;
7289;SDS011;63176;52.678;13.250;2023-01-29T03:49:56;13.00;;;6.45;;
7289;SDS011;63176;52.678;13.250;2023-01-29T03:57:52;14.00;;;5.82;;
7289;SDS011;63176;52.678;13.250;2023-01-29T04:00:44;8.98;;;5.05;;
7289;SDS011;63176;52.678;13.250;2023-01-29T04:03:19;9.18;;;6.30;;
7289;SDS011;63176;52.678;13.250;2023-01-29T04:06:00;16.02;;;6.22;;
7289;SDS011;63176;52.678;13.250;2023-01-29T04:08:55;12.18;;;6.38;;
7289;SDS011;63176;52.678;13.250;2023-01-29T04:11:26;18.52;;;6.20;;
7289;SDS011;63176;52.678;13.250;2023-01-29T04:13:53;12.70;;;6.63;;
7289;SDS011;63176;52.678;13.250;2023-01-29T04:16:22;10.98;;;7.10;;
7289;SDS011;63176;52.678;13.250;2023-01-29T04:18:52;14.38;;;6.55;;
7289;SDS011;63176;52.678;13.250;2023-01-29T04:21:18;10.65;;;5.80;;
7289;SDS011;63176;52.678;13.250;2023-01-29T04:23:44;12.73;;;6.90;;
7289;SDS011;63176;52.678;13.250;2023-01-29T04:31:33;12.07;;;6.68;;
7289;SDS011;63176;52.678;13.250;2023-01-29T04:34:11;10.40;;;5.50;;
7289;SDS011;63176;52.678;13.250;2023-01-29T04:36:58;14.55;;;6.95;;
7289;SDS011;63176;52.678;13.250;2023-01-29T04:42:11;14.00;;;7.30;;
7289;SDS011;63176;52.678;13.250;2023-01-29T04:44:50;17.45;;;6.30;;
7289;SDS011;63176;52.678;13.250;2023-01-29T04:47:31;11.00;;;5.93;;
7289;SDS011;63176;52.678;13.250;2023-01-29T05:00:58;16.65;;;7.60;;
7289;SDS011;63176;52.678;13.250;2023-01-29T05:03:27;13.73;;;6.68;;
7289;SDS011;63176;52.678;13.250;2023-01-29T05:05:55;15.60;;;7.63;;
7289;SDS011;63176;52.678;13.250;2023-01-29T05:08:23;12.10;;;5.93;;
7289;SDS011;63176;52.678;13.250;2023-01-29T05:10:50;17.63;;;6.95;;
7289;SDS011;63176;52.678;13.250;2023-01-29T05:13:18;14.10;;;7.30;;
7289;SDS011;63176;52.678;13.250;2023-01-29T05:16:06;14.15;;;6.70;;
7289;SDS011;63176;52.678;13.250;2023-01-29T05:18:43;14.07;;;7.07;;
7289;SDS011;63176;52.678;13.250;2023-01-29T05:21:09;11.93;;;7.13;;
7289;SDS011;63176;52.678;13.250;2023-01-29T05:23:35;14.60;;;7.23;;
7289;SDS011;63176;52.678;13.250;2023-01-29T05:26:01;12.63;;;6.33;;
7289;SDS011;63176;52.678;13.250;2023-01-29T05:28:27;11.20;;;6.97;;
7289;SDS011;63176;52.678;13.250;2023-01-29T05:30:53;12.67;;;6.80;;
7289;SDS011;63176;52.678;13.250;2023-01-29T05:33:27;11.57;;;7.40;;
7289;SDS011;63176;52.678;13.250;2023-01-29T05:35:55;13.45;;;7.30;;
7289;SDS011;63176;52.678;13.250;2023-01-29T05:38:22;13.48;;;6.88;;
7289;SDS011;63176;52.678;13.250;2023-01-29T05:40:48;17.53;;;7.60;;
7289;SDS011;63176;52.678;13.250;2023-01-29T05:43:15;13.10;;;6.47;;
7289;SDS011;63176;52.678;13.250;2023-01-29T05:45:55;15.10;;;7.22;;
7289;SDS011;63176;52.678;13.250;2023-01-29T05:48:23;19.38;;;8.48;;
7289;SDS011;63176;52.678;13.250;2023-01-29T05:50:49;13.77;;;7.32;;
7289;SDS011;63176;52.678;13.250;2023-01-29T05:53:15;13.45;;;6.65;;
7289;SDS011;63176;52.678;13.250;2023-01-29T05:55:47;17.80;;;7.20;;
7289;SDS011;63176;52.678;13.250;2023-01-29T05:58:13;10.18;;;5.40;;
7289;SDS011;63176;52.678;13.250;2023-01-29T06:00:39;13.98;;;7.30;;
7289;SDS011;63176;52.678;13.250;2023-01-29T06:03:06;13.48;;;7.43;;
7289;SDS011;63176;52.678;13.250;2023-01-29T06:05:31;14.37;;;7.70;;
7289;SDS011;63176;52.678;13.250;2023-01-29T06:07:57;10.60;;;6.50;;
7289;SDS011;63176;52.678;13.250;2023-01-29T06:10:23;17.90;;;9.00;;
7289;SDS011;63176;52.678;13.250;2023-01-29T06:12:48;16.87;;;7.40;;
7289;SDS011;63176;52.678;13.250;2023-01-29T06:15:14;16.90;;;6.87;;
7289;SDS011;63176;52.678;13.250;2023-01-29T06:17:40;11.70;;;7.00;;
7289;SDS011;63176;52.678;13.250;2023-01-29T06:20:06;17.13;;;7.13;;
7289;SDS011;63176;52.678;13.250;2023-01-29T06:22:33;12.63;;;6.30;;
7289;SDS011;63176;52.678;13.250;2023-01-29T06:24:58;10.10;;;6.33;;
7289;SDS011;63176;52.678;13.250;2023-01-29T06:27:24;13.67;;;7.30;;
7289;SDS011;63176;52.678;13.250;2023-01-29T06:29:50;17.10;;;8.13;;
7289;SDS011;63176;52.678;13.250;2023-01-29T06:32:15;14.60;;;7.40;;
7289;SDS011;63176;52.678;13.250;2023-01-29T06:34:41;19.53;;;9.27;;
7289;SDS011;63176;52.678;13.250;2023-01-29T06:37:07;17.10;;;7.57;;
7289;SDS011;63176;52.678;13.250;2023-01-29T06:39:32;17.33;;;7.73;;
7289;SDS011;63176;52.678;13.250;2023-01-29T06:41:58;17.83;;;7.87;;
7289;SDS011;63176;52.678;13.250;2023-01-29T06:44:24;14.10;;;6.87;;
7289;SDS011;63176;52.678;13.250;2023-01-29T06:46:50;13.40;;;6.68;;
7289;SDS011;63176;52.678;13.250;2023-01-29T06:49:15;18.40;;;7.87;;
7289;SDS011;63176;52.678;13.250;2023-01-29T06:51:41;13.97;;;7.70;;
7289;SDS011;63176;52.678;13.250;2023-01-29T06:54:08;11.67;;;7.43;;
7289;SDS011;63176;52.678;13.250;2023-01-29T06:56:34;16.30;;;6.90;;
7289;SDS011;63176;52.678;13.250;2023-01-29T06:58:59;12.27;;;7.53;;
7289;SDS011;63176;52.678;13.250;2023-01-29T07:01:25;13.07;;;6.60;;
7289;SDS011;63176;52.678;13.250;2023-01-29T07:03:51;16.70;;;7.73;;
7289;SDS011;63176;52.678;13.250;2023-01-29T07:06:17;15.13;;;7.63;;
7289;SDS011;63176;52.678;13.250;2023-01-29T07:08:43;12.90;;;7.00;;
7289;SDS011;63176;52.678;13.250;2023-01-29T07:11:08;19.80;;;7.90;;
7289;SDS011;63176;52.678;13.250;2023-01-29T07:13:34;15.50;;;7.30;;
7289;SDS011;63176;52.678;13.250;2023-01-29T07:16:00;14.33;;;8.50;;
7289;SDS011;63176;52.678;13.250;2023-01-29T07:18:27;14.02;;;7.80;;
7289;SDS011;63176;52.678;13.250;2023-01-29T07:20:53;12.88;;;6.72;;
7289;SDS011;63176;52.678;13.250;2023-01-29T07:23:19;12.93;;;7.55;;
7289;SDS011;63176;52.678;13.250;2023-01-29T07:25:45;21.20;;;8.10;;
7289;SDS011;63176;52.678;13.250;2023-01-29T07:28:13;24.00;;;7.57;;
7289;SDS011;63176;52.678;13.250;2023-01-29T07:30:40;12.23;;;6.82;;
7289;SDS011;63176;52.678;13.250;2023-01-29T07:33:06;15.03;;;8.17;;
7289;SDS011;63176;52.678;13.250;2023-01-29T07:35:36;17.33;;;6.55;;
7289;SDS011;63176;52.678;13.250;2023-01-29T07:38:03;13.65;;;6.57;;
7289;SDS011;63176;52.678;13.250;2023-01-29T07:40:29;13.20;;;7.47;;
7289;SDS011;63176;52.678;13.250;2023-01-29T07:43:01;22.60;;;9.03;;
7289;SDS011;63176;52.678;13.250;2023-01-29T07:45:29;18.13;;;7.60;;
7289;SDS011;63176;52.678;13.250;2023-01-29T07:47:55;13.25;;;7.13;;
7289;SDS011;63176;52.678;13.250;2023-01-29T07:50:22;13.17;;;7.23;;
7289;SDS011;63176;52.678;13.250;2023-01-29T07:52:48;15.77;;;8.23;;
7289;SDS011;63176;52.678;13.250;2023-01-29T07:55:14;15.00;;;7.03;;
7289;SDS011;63176;52.678;13.250;2023-01-29T07:57:40;17.03;;;8.00;;
7289;SDS011;63176;52.678;13.250;2023-01-29T08:00:05;11.80;;;6.87;;
7289;SDS011;63176;52.678;13.250;2023-01-29T08:02:32;16.90;;;8.68;;
7289;SDS011;63176;52.678;13.250;2023-01-29T08:04:57;13.93;;;7.20;;
7289;SDS011;63176;52.678;13.250;2023-01-29T08:07:23;14.53;;;8.00;;
7289;SDS011;63176;52.678;13.250;2023-01-29T08:09:48;16.23;;;8.90;;
7289;SDS011;63176;52.678;13.250;2023-01-29T08:12:14;16.43;;;7.73;;
7289;SDS011;63176;52.678;13.250;2023-01-29T08:14:40;16.20;;;7.40;;
7289;SDS011;63176;52.678;13.250;2023-01-29T08:17:05;14.13;;;7.63;;
7289;SDS011;63176;52.678;13.250;2023-01-29T08:19:31;11.63;;;7.03;;
7289;SDS011;63176;52.678;13.250;2023-01-29T08:21:56;14.57;;;7.50;;
7289;SDS011;63176;52.678;13.250;2023-01-29T08:24:22;18.83;;;8.03;;
7289;SDS011;63176;52.678;13.250;2023-01-29T08:26:48;18.87;;;8.13;;
7289;SDS011;63176;52.678;13.250;2023-01-29T08:29:13;15.57;;;7.10;;
7289;SDS011;63176;52.678;13.250;2023-01-29T08:31:39;18.43;;;6.83;;
7289;SDS011;63176;52.678;13.250;2023-01-29T08:34:04;15.73;;;7.17;;
7289;SDS011;63176;52.678;13.250;2023-01-29T08:36:30;11.40;;;6.10;;
7289;SDS011;63176;52.678;13.250;2023-01-29T08:38:56;14.20;;;7.77;;
7289;SDS011;63176;52.678;13.250;2023-01-29T08:41:22;14.00;;;7.03;;
7289;SDS011;63176;52.678;13.250;2023-01-29T08:43:47;15.03;;;7.40;;
7289;SDS011;63176;52.678;13.250;2023-01-29T08:46:13;17.20;;;9.40;;
7289;SDS011;63176;52.678;13.250;2023-01-29T08:48:38;15.90;;;9.30;;
7289;SDS011;63176;52.678;13.250;2023-01-29T08:51:04;15.57;;;7.80;;
7289;SDS011;63176;52.678;13.250;2023-01-29T08:53:30;14.50;;;8.23;;
7289;SDS011;63176;52.678;13.250;2023-01-29T08:55:56;14.93;;;8.40;;
7289;SDS011;63176;52.678;13.250;2023-01-29T08:58:22;13.53;;;6.23;;
7289;SDS011;63176;52.678;13.250;2023-01-29T09:00:48;20.70;;;8.53;;
7289;SDS011;63176;52.678;13.250;2023-01-29T09:03:13;16.80;;;8.07;;
7289;SDS011;63176;52.678;13.250;2023-01-29T09:05:39;15.38;;;8.30;;
7289;SDS011;63176;52.678;13.250;2023-01-29T09:08:06;15.63;;;7.60;;
7289;SDS011;63176;52.678;13.250;2023-01-29T09:10:33;21.52;;;9.80;;
7289;SDS011;63176;52.678;13.250;2023-01-29T09:12:59;11.35;;;6.82;;
7289;SDS011;63176;52.678;13.250;2023-01-29T09:15:24;18.40;;;7.93;;
7289;SDS011;63176;52.678;13.250;2023-01-29T09:17:50;17.30;;;7.60;;
7289;SDS011;63176;52.678;13.250;2023-01-29T09:20:16;14.03;;;7.03;;
7289;SDS011;63176;52.678;13.250;2023-01-29T09:22:43;14.73;;;7.40;;
7289;SDS011;63176;52.678;13.250;2023-01-29T09:25:09;15.27;;;7.18;;
7289;SDS011;63176;52.678;13.250;2023-01-29T09:27:35;15.90;;;7.33;;
7289;SDS011;63176;52.678;13.250;2023-01-29T09:30:01;13.20;;;8.10;;
7289;SDS011;63176;52.678;13.250;2023-01-29T09:32:28;19.02;;;8.73;;
7289;SDS011;63176;52.678;13.250;2023-01-29T09:34:56;14.73;;;7.15;;
7289;SDS011;63176;52.678;13.250;2023-01-29T09:37:22;13.57;;;7.93;;
7289;SDS011;63176;52.678;13.250;2023-01-29T09:39:48;12.17;;;6.53;;
7289;SDS011;63176;52.678;13.250;2023-01-29T09:45:04;16.08;;;7.75;;
7289;SDS011;63176;52.678;13.250;2023-01-29T09:47:36;13.32;;;7.25;;
7289;SDS011;63176;52.678;13.250;2023-01-29T09:52:45;13.88;;;8.77;;
7289;SDS011;63176;52.678;13.250;2023-01-29T09:57:51;22.75;;;11.30;;
7289;SDS011;63176;52.678;13.250;2023-01-29T10:11:42;11.90;;;6.63;;
7289;SDS011;63176;52.678;13.250;2023-01-29T10:14:19;22.88;;;8.23;;
7289;SDS011;63176;52.678;13.250;2023-01-29T10:24:37;11.82;;;6.57;;
7289;SDS011;63176;52.678;13.250;2023-01-29T10:27:16;13.02;;;6.47;;
7289;SDS011;63176;52.678;13.250;2023-01-29T10:29:43;13.35;;;6.13;;
7289;SDS011;63176;52.678;13.250;2023-01-29T10:32:15;11.75;;;5.35;;
7289;SDS011;63176;52.678;13.250;2023-01-29T10:34:48;14.55;;;7.38;;
7289;SDS011;63176;52.678;13.250;2023-01-29T10:37:22;8.35;;;5.28;;
7289;SDS011;63176;52.678;13.250;2023-01-29T10:40:27;14.52;;;7.80;;
7289;SDS011;63176;52.678;13.250;2023-01-29T10:43:10;13.75;;;6.63;;
7289;SDS011;63176;52.678;13.250;2023-01-29T10:57:41;10.98;;;5.82;;
7289;SDS011;63176;52.678;13.250;2023-01-29T11:02:47;9.90;;;6.38;;
7289;SDS011;63176;52.678;13.250;2023-01-29T11:07:46;11.98;;;6.00;;
7289;SDS011;63176;52.678;13.250;2023-01-29T11:10:13;9.38;;;5.55;;
7289;SDS011;63176;52.678;13.250;2023-01-29T11:12:44;10.32;;;5.30;;
7289;SDS011;63176;52.678;13.250;2023-01-29T11:15:27;10.68;;;6.00;;
7289;SDS011;63176;52.678;13.250;2023-01-29T11:17:59;12.23;;;6.88;;
7289;SDS011;63176;52.678;13.250;2023-01-29T11:20:37;12.73;;;5.70;;
7289;SDS011;63176;52.678;13.250;2023-01-29T11:23:04;11.80;;;5.65;;
7289;SDS011;63176;52.678;13.250;2023-01-29T11:25:30;10.47;;;6.07;;
7289;SDS011;63176;52.678;13.250;2023-01-29T11:27:59;12.88;;;6.10;;
7289;SDS011;63176;52.678;13.250;2023-01-29T11:30:36;8.80;;;5.25;;
7289;SDS011;63176;52.678;13.250;2023-01-29T11:33:19;8.70;;;5.35;;
7289;SDS011;63176;52.678;13.250;2023-01-29T11:35:47;10.90;;;5.38;;
7289;SDS011;63176;52.678;13.250;2023-01-29T11:38:23;9.35;;;5.10;;
7289;SDS011;63176;52.678;13.250;2023-01-29T11:40:50;11.13;;;6.32;;
7289;SDS011;63176;52.678;13.250;2023-01-29T11:43:18;10.35;;;4.90;;
7289;SDS011;63176;52.678;13.250;2023-01-29T11:45:44;10.50;;;4.75;;
7289;SDS011;63176;52.678;13.250;2023-01-29T11:48:19;12.27;;;6.00;;
7289;SDS011;63176;52.678;13.250;2023-01-29T11:50:53;11.45;;;5.35;;
7289;SDS011;63176;52.678;13.250;2023-01-29T11:56:01;8.43;;;4.88;;
7289;SDS011;63176;52.678;13.250;2023-01-29T11:58:30;12.70;;;5.35;;
7289;SDS011;63176;52.678;13.250;2023-01-29T12:00:58;7.97;;;5.10;;
7289;SDS011;63176;52.678;13.250;2023-01-29T12:03:33;9.93;;;5.95;;
7289;SDS011;63176;52.678;13.250;2023-01-29T12:06:22;10.45;;;5.90;;
7289;SDS011;63176;52.678;13.250;2023-01-29T12:08:53;11.60;;;5.50;;
7289;SDS011;63176;52.678;13.250;2023-01-29T12:11:26;13.10;;;6.03;;
7289;SDS011;63176;52.678;13.250;2023-01-29T12:13:53;9.97;;;4.60;;
7289;SDS011;63176;52.678;13.250;2023-01-29T12:24:33;12.45;;;5.00;;
7289;SDS011;63176;52.678;13.250;2023-01-29T12:27:06;8.57;;;4.50;;
7289;SDS011;63176;52.678;13.250;2023-01-29T12:32:40;12.20;;;5.45;;
7289;SDS011;63176;52.678;13.250;2023-01-29T12:35:37;9.57;;;5.90;;
7289;SDS011;63176;52.678;13.250;2023-01-29T12:38:18;7.13;;;4.50;;
7289;SDS011;63176;52.678;13.250;2023-01-29T12:43:15;9.18;;;6.03;;
7289;SDS011;63176;52.678;13.250;2023-01-29T12:45:42;10.90;;;5.43;;
7289;SDS011;63176;52.678;13.250;2023-01-29T12:48:17;9.95;;;4.95;;
7289;SDS011;63176;52.678;13.250;2023-01-29T12:50:56;10.82;;;5.82;;
7289;SDS011;63176;52.678;13.250;2023-01-29T12:53:31;8.60;;;5.07;;
7289;SDS011;63176;52.678;13.250;2023-01-29T12:56:09;9.55;;;5.40;;
7289;SDS011;63176;52.678;13.250;2023-01-29T12:58:49;11.00;;;5.70;;
7289;SDS011;63176;52.678;13.250;2023-01-29T13:06:25;12.60;;;5.50;;
7289;SDS011;63176;52.678;13.250;2023-01-29T13:09:05;11.43;;;5.50;;
7289;SDS011;63176;52.678;13.250;2023-01-29T13:11:39;9.32;;;5.43;;
7289;SDS011;63176;52.678;13.250;2023-01-29T13:22:53;7.53;;;5.10;;
7289;SDS011;63176;52.678;13.250;2023-01-29T13:25:22;7.07;;;4.25;;
7289;SDS011;63176;52.678;13.250;2023-01-29T13:27:47;9.17;;;5.27;;
7289;SDS011;63176;52.678;13.250;2023-01-29T13:30:23;8.18;;;5.45;;
7289;SDS011;63176;52.678;13.250;2023-01-29T13:32:54;11.02;;;4.88;;
7289;SDS011;63176;52.678;13.250;2023-01-29T13:35:32;10.52;;;5.22;;
7289;SDS011;63176;52.678;13.250;2023-01-29T13:38:14;13.25;;;5.97;;
7289;SDS011;63176;52.678;13.250;2023-01-29T13:40:48;13.55;;;7.75;;
7289;SDS011;63176;52.678;13.250;2023-01-29T13:43:21;10.05;;;5.47;;
7289;SDS011;63176;52.678;13.250;2023-01-29T13:45:48;8.27;;;5.22;;
7289;SDS011;63176;52.678;13.250;2023-01-29T13:48:29;9.98;;;5.13;;
7289;SDS011;63176;52.678;13.250;2023-01-29T13:50:59;11.35;;;5.93;;
7289;SDS011;63176;52.678;13.250;2023-01-29T13:53:26;8.40;;;5.90;;
7289;SDS011;63176;52.678;13.250;2023-01-29T13:55:55;9.35;;;5.00;;
7289;SDS011;63176;52.678;13.250;2023-01-29T13:58:56;10.73;;;6.15;;
7289;SDS011;63176;52.678;13.250;2023-01-29T14:06:56;15.85;;;6.03;;
7289;SDS011;63176;52.678;13.250;2023-01-29T14:11:58;10.93;;;5.60;;
7289;SDS011;63176;52.678;13.250;2023-01-29T14:17:11;8.88;;;4.68;;
7289;SDS011;63176;52.678;13.250;2023-01-29T14:19:49;11.02;;;5.55;;
7289;SDS011;63176;52.678;13.250;2023-01-29T14:22:21;13.63;;;5.93;;
7289;SDS011;63176;52.678;13.250;2023-01-29T14:24:49;10.02;;;6.28;;
7289;SDS011;63176;52.678;13.250;2023-01-29T14:27:20;12.48;;;6.00;;
7289;SDS011;63176;52.678;13.250;2023-01-29T14:29:49;14.23;;;7.38;;
7289;SDS011;63176;52.678;13.250;2023-01-29T14:32:22;11.65;;;6.47;;
7289;SDS011;63176;52.678;13.250;2023-01-29T14:34:50;14.07;;;7.10;;
7289;SDS011;63176;52.678;13.250;2023-01-29T14:37:37;10.43;;;6.00;;
7289;SDS011;63176;52.678;13.250;2023-01-29T14:43:00;12.85;;;6.32;;
7289;SDS011;63176;52.678;13.250;2023-01-29T14:48:16;11.45;;;7.10;;
7289;SDS011;63176;52.678;13.250;2023-01-29T14:51:04;13.27;;;6.72;;
7289;SDS011;63176;52.678;13.250;2023-01-29T14:56:34;12.80;;;6.70;;
7289;SDS011;63176;52.678;13.250;2023-01-29T14:59:12;10.68;;;6.28;;
7289;SDS011;63176;52.678;13.250;2023-01-29T15:01:54;15.38;;;6.85;;
7289;SDS011;63176;52.678;13.250;2023-01-29T15:04:26;14.80;;;8.05;;
7289;SDS011;63176;52.678;13.250;2023-01-29T15:07:18;14.30;;;7.22;;
7289;SDS011;63176;52.678;13.250;2023-01-29T15:09:53;18.17;;;8.25;;
7289;SDS011;63176;52.678;13.250;2023-01-29T15:18:08;13.05;;;7.05;;
7289;SDS011;63176;52.678;13.250;2023-01-29T15:20:41;14.90;;;7.25;;
7289;SDS011;63176;52.678;13.250;2023-01-29T15:23:27;12.68;;;6.28;;
7289;SDS011;63176;52.678;13.250;2023-01-29T15:26:01;14.38;;;7.07;;
7289;SDS011;63176;52.678;13.250;2023-01-29T15:28:29;14.70;;;6.60;;
7289;SDS011;63176;52.678;13.250;2023-01-29T15:30:58;13.43;;;6.95;;
7289;SDS011;63176;52.678;13.250;2023-01-29T15:33:25;13.35;;;7.32;;
7289;SDS011;63176;52.678;13.250;2023-01-29T15:35:56;17.17;;;7.95;;
7289;SDS011;63176;52.678;13.250;2023-01-29T15:38:24;15.88;;;8.20;;
7289;SDS011;63176;52.678;13.250;2023-01-29T15:43:24;15.05;;;7.55;;
7289;SDS011;63176;52.678;13.250;2023-01-29T15:46:37;16.42;;;8.00;;
7289;SDS011;63176;52.678;13.250;2023-01-29T15:48:43;19.85;;;9.18;;
7289;SDS011;63176;52.678;13.250;2023-01-29T15:51:21;19.08;;;8.18;;
7289;SDS011;63176;52.678;13.250;2023-01-29T15:53:52;17.55;;;8.68;;
7289;SDS011;63176;52.678;13.250;2023-01-29T15:56:21;16.35;;;8.35;;
7289;SDS011;63176;52.678;13.250;2023-01-29T15:58:52;18.30;;;7.75;;
7289;SDS011;63176;52.678;13.250;2023-01-29T16:01:19;18.50;;;7.45;;
7289;SDS011;63176;52.678;13.250;2023-01-29T16:03:47;15.73;;;8.07;;
7289;SDS011;63176;52.678;13.250;2023-01-29T16:06:14;17.50;;;8.73;;
7289;SDS011;63176;52.678;13.250;2023-01-29T16:08:41;13.88;;;6.45;;
7289;SDS011;63176;52.678;13.250;2023-01-29T16:11:12;13.63;;;6.53;;
7289;SDS011;63176;52.678;13.250;2023-01-29T16:13:39;15.07;;;7.82;;
7289;SDS011;63176;52.678;13.250;2023-01-29T16:18:39;16.73;;;8.15;;
7289;SDS011;63176;52.678;13.250;2023-01-29T16:24:11;12.10;;;6.20;;
7289;SDS011;63176;52.678;13.250;2023-01-29T16:26:43;13.30;;;7.35;;
7289;SDS011;63176;52.678;13.250;2023-01-29T16:29:18;18.30;;;7.15;;
7289;SDS011;63176;52.678;13.250;2023-01-29T16:31:52;12.45;;;6.60;;
7289;SDS011;63176;52.678;13.250;2023-01-29T16:34:25;12.05;;;6.25;;
7289;SDS011;63176;52.678;13.250;2023-01-29T16:36:53;14.40;;;7.88;;
7289;SDS011;63176;52.678;13.250;2023-01-29T16:39:27;19.45;;;8.45;;
7289;SDS011;63176;52.678;13.250;2023-01-29T16:47:27;12.27;;;6.45;;
7289;SDS011;63176;52.678;13.250;2023-01-29T16:50:39;12.05;;;6.55;;
7289;SDS011;63176;52.678;13.250;2023-01-29T16:53:01;13.85;;;6.22;;
7289;SDS011;63176;52.678;13.250;2023-01-29T16:55:46;18.80;;;8.75;;
7289;SDS011;63176;52.678;13.250;2023-01-29T16:58:15;17.15;;;7.72;;
7289;SDS011;63176;52.678;13.250;2023-01-29T17:00:45;17.40;;;7.80;;
7289;SDS011;63176;52.678;13.250;2023-01-29T17:03:13;12.50;;;6.15;;
7289;SDS011;63176;52.678;13.250;2023-01-29T17:05:41;13.18;;;6.88;;
7289;SDS011;63176;52.678;13.250;2023-01-29T17:08:13;15.90;;;7.85;;
7289;SDS011;63176;52.678;13.250;2023-01-29T17:10:46;13.10;;;6.88;;
7289;SDS011;63176;52.678;13.250;2023-01-29T17:13:16;15.30;;;7.03;;
7289;SDS011;63176;52.678;13.250;2023-01-29T17:15:51;13.05;;;6.57;;
7289;SDS011;63176;52.678;13.250;2023-01-29T17:18:23;15.20;;;7.60;;
7289;SDS011;63176;52.678;13.250;2023-01-29T17:20:49;10.93;;;6.00;;
7289;SDS011;63176;52.678;13.250;2023-01-29T17:23:16;12.27;;;6.32;;
7289;SDS011;63176;52.678;13.250;2023-01-29T17:25:42;15.40;;;8.40;;
7289;SDS011;63176;52.678;13.250;2023-01-29T17:28:10;23.35;;;12.57;;
7289;SDS011;63176;52.678;13.250;2023-01-29T17:30:38;19.08;;;7.25;;
7289;SDS011;63176;52.678;13.250;2023-01-29T17:33:17;13.68;;;7.45;;
7289;SDS011;63176;52.678;13.250;2023-01-29T17:35:46;13.35;;;7.03;;
7289;SDS011;63176;52.678;13.250;2023-01-29T17:38:14;11.98;;;5.90;;
7289;SDS011;63176;52.678;13.250;2023-01-29T17:40:51;10.40;;;6.72;;
7289;SDS011;63176;52.678;13.250;2023-01-29T17:43:23;15.40;;;6.35;;